Flight Track Log - Related Links

Times and Time Zones

All times are in EDT time to prevent confusion due to time zone crossing. See the SWA1688 flight status page for this flight to view local times or setup timezone preferences in your user account.

Time Position Orientation Groundspeed Altitude Reporting Facility
EDT Latitude Longitude Course Direction KTS MPH feet Rate Location/Type
Tue 09:27:59 PM 28.4167 -81.3000 150° Southeast 146 168 800  Level Orlando TRACON
Tue 09:28:54 PM 28.3667 -81.2667 150° Southeast 220 253 3,000 3,183 Climbing Orlando TRACON
Tue 09:29:54 PM 28.3500 -81.2167 111° Southeast 241 277 6,900 3,383 Climbing Orlando TRACON
Tue 09:32:02 PM 28.5003 -81.2272 356° North 273 314 13,600 3,333 Climbing Jacksonville Center
Tue 09:33:03 PM 28.5964 -81.2539 346° North 313 360 17,400 3,620 Climbing Jacksonville Center
Tue 09:34:03 PM 28.6969 -81.2831 346° North 348 400 20,900 3,500 Climbing Jacksonville Center
Tue 09:35:03 PM 28.7997 -81.3100 347° North 364 419 24,400 2,550 Climbing Jacksonville Center
Tue 09:36:03 PM 28.9064 -81.3392 347° North 382 440 26,000 2,000 Climbing Jacksonville Center
Tue 09:37:03 PM 29.0175 -81.3658 348° North 393 452 28,400 2,269 Climbing Jacksonville Center
Tue 09:38:02 PM 29.1344 -81.3925 349° North 403 464 30,500 1,900 Climbing Jacksonville Center
Tue 09:39:03 PM 29.2558 -81.4072 354° North 425 489 32,200 2,100 Climbing Jacksonville Center
Tue 09:40:02 PM 29.3833 -81.4197 355° North 444 511 34,700 2,300 Climbing Jacksonville Center
Tue 09:41:03 PM 29.5067 -81.4322 355° North 449 517 36,800 1,835 Climbing Jacksonville Center
Tue 09:42:03 PM 29.6342 -81.4447 355° North 449 517 38,400 1,412 Climbing Jacksonville Center
Tue 09:43:02 PM 29.7594 -81.4547 356° North 444 511 39,600 1,109 Climbing Jacksonville Center
Tue 09:44:02 PM 29.8869 -81.4672 355° North 444 511 40,600 694 Climbing Jacksonville Center
Tue 09:45:03 PM 30.0122 -81.4772 356° North 444 511 41,000 200 Climbing Jacksonville Center
Tue 09:46:02 PM 30.1544 -81.4944 354° North 452 520 41,000  Level Jacksonville Center
Tue 09:47:03 PM 30.2797 -81.5047 356° North 452 520 41,000  Level Jacksonville Center
Tue 09:48:03 PM 30.4092 -81.5028 North 457 526 41,000  Level Jacksonville Center
Tue 09:49:02 PM 30.5386 -81.4961 North 457 526 41,000  Level Jacksonville Center
Tue 09:50:02 PM 30.6658 -81.4844 North 457 526 41,000  Level Jacksonville Center
Tue 09:51:03 PM 30.7931 -81.4753 North 457 526 41,000  Level Jacksonville Center
Tue 09:52:03 PM 30.9203 -81.4661 North 463 533 41,000  Level Jacksonville Center
Tue 09:53:02 PM 31.0475 -81.4547 North 463 533 41,000  Level Jacksonville Center
Tue 09:54:02 PM 31.1792 -81.4428 North 454 522 41,000  Level Jacksonville Center
Tue 09:55:02 PM 31.3103 -81.4264 North 466 536 41,000  Level Jacksonville Center
Tue 09:56:02 PM 31.4353 -81.3878 15° North 467 537 41,000  Level Jacksonville Center
Tue 09:57:02 PM 31.5539 -81.3567 13° North 475 547 41,000  Level Jacksonville Center
Tue 09:58:03 PM 31.6953 -81.3200 12° North 470 541 41,000  Level Jacksonville Center
Tue 09:59:02 PM 31.8222 -81.2861 13° North 470 541 41,000  Level Jacksonville Center
Tue 10:00:02 PM 31.9431 -81.2547 12° North 475 547 41,000  Level Jacksonville Center
Tue 10:01:02 PM 32.0678 -81.2206 13° North 469 540 41,000  Level Jacksonville Center
Tue 10:02:02 PM 32.1925 -81.1692 19° North 469 540 41,000  Level Jacksonville Center
Tue 10:03:02 PM 32.3039 -81.0861 32° Northeast 469 540 41,000  Level Jacksonville Center
Tue 10:04:02 PM 32.4175 -81.0050 31° Northeast 469 540 41,000  Level Jacksonville Center
Tue 10:05:02 PM 32.5311 -80.9239 31° Northeast 469 540 41,000  Level Jacksonville Center
Tue 10:06:03 PM 32.6447 -80.8400 32° Northeast 469 540 41,000  Level Jacksonville Center
Tue 10:07:02 PM 32.7561 -80.7583 32° Northeast 469 540 41,000  Level Jacksonville Center
Tue 10:08:02 PM 32.8694 -80.6764 31° Northeast 469 540 41,000  Level Jacksonville Center
Tue 10:09:02 PM 32.9806 -80.5944 32° Northeast 469 540 41,000  Level Jacksonville Center
Tue 10:10:02 PM 33.0981 -80.5122 30° Northeast 469 540 41,000  Level Jacksonville Center
Tue 10:11:02 PM 33.2217 -80.4194 32° Northeast 469 540 41,000  Level Jacksonville Center
Tue 10:12:02 PM 33.3347 -80.3344 32° Northeast 469 540 41,000  Level Jacksonville Center
Tue 10:13:02 PM 33.4497 -80.2489 32° Northeast 469 540 41,000  Level Jacksonville Center
Tue 10:14:03 PM 33.5628 -80.1633 32° Northeast 469 540 41,000  Level Jacksonville Center
Tue 10:15:02 PM 33.6736 -80.0825 31° Northeast 469 540 41,000  Level Jacksonville Center
Tue 10:16:02 PM 33.7864 -79.9964 32° Northeast 469 540 41,000  Level Jacksonville Center
Tue 10:17:02 PM 33.9014 -79.9100 32° Northeast 469 540 41,000  Level Jacksonville Center
Tue 10:18:02 PM 34.0161 -79.8258 31° Northeast 469 540 41,000  Level Jacksonville Center
Tue 10:20:33 PM 34.2894 -79.6286 31° Northeast 496 571 41,000  Level Washington Center
Tue 10:21:34 PM 34.4147 -79.5644 23° Northeast 496 571 41,000  Level Washington Center
Tue 10:22:32 PM 34.5356 -79.4997 24° Northeast 483 556 41,000  Level Washington Center
Tue 10:23:32 PM 34.6611 -79.4325 24° Northeast 483 556 41,000  Level Washington Center
Tue 10:24:33 PM 34.7819 -79.3697 23° Northeast 478 550 41,000  Level Washington Center
Tue 10:25:33 PM 34.9156 -79.3000 23° Northeast 472 543 41,000  Level Washington Center
Tue 10:26:34 PM 35.0364 -79.2347 24° Northeast 466 536 41,000  Level Washington Center
Tue 10:27:33 PM 35.1594 -79.1717 23° Northeast 466 536 41,000  Level Washington Center
Tue 10:28:33 PM 35.2803 -79.1083 23° Northeast 466 536 41,000  Level Washington Center
Tue 10:29:32 PM 35.4031 -79.0422 24° Northeast 472 543 41,000  Level Washington Center
Tue 10:30:33 PM 35.5261 -78.9761 24° Northeast 467 537 41,000  Level Washington Center
Tue 10:31:34 PM 35.6511 -78.9100 23° Northeast 467 537 41,000  Level Washington Center
Tue 10:32:33 PM 35.7739 -78.8433 24° Northeast 472 543 41,000  Level Washington Center
Tue 10:33:32 PM 35.8928 -78.7686 27° Northeast 472 543 41,000  Level Washington Center
Tue 10:34:33 PM 36.0017 -78.6756 35° Northeast 472 543 41,000  Level Washington Center
Tue 10:35:33 PM 36.1106 -78.5794 35° Northeast 472 543 41,000  Level Washington Center
Tue 10:36:35 PM 36.2194 -78.4806 36° Northeast 477 549 41,000  Level Washington Center
Tue 10:37:32 PM 36.3281 -78.3867 35° Northeast 482 555 41,000  Level Washington Center
Tue 10:38:32 PM 36.4386 -78.2875 36° Northeast 482 555 41,000  Level Washington Center
Tue 10:39:35 PM 36.5450 -78.1953 35° Northeast 477 549 41,000  Level Washington Center
Tue 10:40:32 PM 36.6472 -78.0978 37° Northeast 472 543 41,000  Level Washington Center
Tue 10:41:33 PM 36.7558 -78.0003 36° Northeast 472 543 41,000  Level Washington Center
Tue 10:42:35 PM 36.8597 -77.9075 36° Northeast 466 536 41,000  Level Washington Center
Tue 10:43:34 PM 36.9658 -77.8092 37° Northeast 466 536 41,000  Level Washington Center
Tue 10:44:34 PM 37.0742 -77.7133 35° Northeast 466 536 41,000  Level Washington Center
Tue 10:45:32 PM 37.1800 -77.6172 36° Northeast 466 536 41,000  Level Washington Center
Tue 10:46:34 PM 37.2839 -77.5208 36° Northeast 466 536 41,000  Level Washington Center
Tue 10:47:32 PM 37.3917 -77.4269 35° Northeast 466 536 41,000  Level Washington Center
Tue 10:48:32 PM 37.4975 -77.3272 37° Northeast 466 536 41,000  Level Washington Center
Tue 10:49:35 PM 37.5928 -77.2167 43° Northeast 466 536 41,000  Level Washington Center
Tue 10:50:32 PM 37.6903 -77.1033 43° Northeast 466 536 41,000  Level Washington Center
Tue 10:51:34 PM 37.7856 -76.9897 43° Northeast 466 536 41,000  Level Washington Center
Tue 10:52:34 PM 37.8847 -76.8758 42° Northeast 472 543 41,000  Level Washington Center
Tue 10:53:32 PM 37.9819 -76.7614 43° Northeast 477 549 41,000  Level Washington Center
Tue 10:54:33 PM 38.0789 -76.6469 43° Northeast 477 549 41,000  Level Washington Center
Tue 10:55:34 PM 38.1758 -76.5294 44° Northeast 477 549 41,000  Level Washington Center
Tue 10:56:32 PM 38.2747 -76.4142 42° Northeast 477 549 41,000  Level Washington Center
Tue 10:57:32 PM 38.3692 -76.3253 36° Northeast 470 541 41,000  Level Washington Center
Tue 10:58:32 PM 38.4739 -76.2256 37° Northeast 470 541 41,000  Level Washington Center
Tue 10:59:33 PM 38.5953 -76.1175 35° Northeast 475 547 41,000  Level Washington Center
Tue 11:00:33 PM 38.7019 -76.0172 36° Northeast 475 547 41,000  Level Washington Center
Tue 11:01:35 PM 38.8067 -75.9192 36° Northeast 469 540 41,000  Level Washington Center
Tue 11:02:33 PM 38.9131 -75.8211 36° Northeast 469 540 41,000  Level Washington Center
Tue 11:03:32 PM 39.0153 -75.7144 39° Northeast 469 540 41,000  Level Washington Center
Tue 11:04:35 PM 39.1197 -75.6131 37° Northeast 469 540 41,000 -793 Level Washington Center
Tue 11:05:33 PM 39.2217 -75.5058 39° Northeast 469 540 39,400 -1,361 Descending Washington Center
Tue 11:06:34 PM 39.3217 -75.4039 38° Northeast 464 534 38,300 -1,008 Descending Washington Center
Tue 11:07:32 PM 39.4256 -75.2986 38° Northeast 464 534 37,400 -908 Descending Washington Center
Tue 11:08:33 PM 39.5253 -75.1961 38° Northeast 464 534 36,500 -818 Descending Washington Center
Tue 11:10:28 PM 39.7125 -75.0022 39° Northeast 443 510 35,000 -511 Descending New York Center
Tue 11:11:29 PM 39.8078 -74.9028 39° Northeast 438 504 35,000  Level New York Center
Tue 11:12:31 PM 39.8961 -74.8158 37° Northeast 438 504 35,000  Level New York Center
Tue 11:13:29 PM 39.9936 -74.7131 39° Northeast 443 510 35,000  Level New York Center
Tue 11:14:30 PM 40.0864 -74.6153 39° Northeast 443 510 35,000  Level New York Center
Tue 11:15:31 PM 40.1811 -74.5175 38° Northeast 436 502 35,000  Level New York Center
Tue 11:16:29 PM 40.2847 -74.4033 40° Northeast 441 507 35,000  Level New York Center
Tue 11:17:29 PM 40.3753 -74.3044 40° Northeast 436 502 35,000 -992 Level New York Center
Tue 11:18:30 PM 40.4700 -74.2056 38° Northeast 436 502 33,000 -2,361 Descending New York Center
Tue 11:19:31 PM 40.5625 -74.1064 39° Northeast 436 502 30,200 -2,700 Descending New York Center
Tue 11:20:30 PM 40.6547 -74.0097 38° Northeast 430 495 27,600 -2,268 Descending New York Center
Tue 11:22:15 PM 40.7994 -73.8519 40° Northeast 406 467 24,000 -1,309 Descending Boston Center
Tue 11:23:15 PM 40.9064 -73.7994 20° North 406 467 24,000  Level Boston Center
Tue 11:24:15 PM 41.0250 -73.8019 359° North 395 455 24,000  Level Boston Center
Tue 11:25:15 PM 41.1397 -73.8044 359° North 405 466 24,000  Level Boston Center
Tue 11:26:15 PM 41.2542 -73.8042 360° North 410 472 24,000  Level Boston Center
Tue 11:27:15 PM 41.3731 -73.8011 North 410 472 24,000  Level Boston Center
Tue 11:28:15 PM 41.4878 -73.8036 359° North 410 472 24,000  Level Boston Center
Tue 11:29:15 PM 41.6044 -73.8003 North 415 478 24,000 -550 Level Boston Center
Tue 11:30:15 PM 41.7169 -73.8028 359° North 415 478 22,900 -1,850 Descending Boston Center
Tue 11:31:15 PM 41.8400 -73.8056 359° North 409 471 20,300 -2,350 Descending Boston Center
Tue 11:32:15 PM 41.9358 -73.8047 360° North 387 445 18,200 -2,377 Descending Boston Center
Tue 11:33:01 PM 42.0294 -73.8039 360° North 377 434 16,100 -2,523 Descending Boston Center
Tue 11:34:02 PM 42.1358 -73.8008 North 377 434 13,700 -2,380 Descending Boston Center
Tue 11:35:02 PM 42.2358 -73.8169 353° North 363 418 11,300 -1,835 Descending Boston Center
Tue 11:36:03 PM 42.3314 -73.8414 349° North 326 375 10,000 -1,426 Descending Boston Center
Tue 11:37:04 PM 42.4144 -73.8658 348° North 299 344 8,400 -1,617 Descending Boston Center
Tue 11:37:58 PM 42.4869 -73.8900 346° North 296 341 6,900 -1,690 Descending Boston Center
Tue 11:38:15 PM 42.5100 -73.8906 359° North 297 342 6,400 -1,433 Descending Boston Center
Tue 11:39:05 PM 42.5742 -73.9119 346° North 289 333 5,300 -973 Descending Boston Center
Tue 11:40:06 PM 42.6450 -73.9247 352° North 254 292 4,600 -744 Descending Boston Center
Tue 11:41:06 PM 42.7094 -73.9375 352° North 224 258 3,800 -1,041 Descending Boston Center
Tue 11:42:07 PM 42.7742 -73.9308 North 212 244 2,500 -992 Descending Boston Center
Tue 11:43:07 PM 42.8081 -73.8892 42° Northeast 167 192 1,800 -347 Descending Boston Center
Tue 11:44:08 PM 42.8211 -73.8356 72° East 145 167 1,800 -393 Level Boston Center
Tue 11:45:09 PM 42.7944 -73.8094 144° Southeast 108 124 1,000 -694 Descending Boston Center
Tue 11:46:09 PM 42.7611 -73.8089 179° South 117 135 400 -600 Descending Boston Center

Login

Don't have an account? Register now (free) for customized features, flight alerts, and more!